Aviation Digital Data Service (ADDS)

Output produced by METARs form (0452 UTC 26 May 2022)
found at http://www.aviationweather.gov/metar/data/
 
METAR text: KFAT 260353Z 30006KT 10SM BKN200 BKN250 33/06 A2973 RMK AO2 SLP064 T03330061
Conditions at: KFAT (FRESNO , CA, US) observed 0353 UTC 26 May 2022
Temperature: 33.3°C (92°F)
Dewpoint: 6.1°C (43°F) [RH = 18%]
Pressure (altimeter): 29.73 inches Hg (1006.9 mb)
[Sea-level pressure: 1006.4 mb]
Winds: from the WNW (300 degrees) at 7 MPH (6 knots; 3.1 m/s)
Visibility: 10 or more miles (16+ km)
Ceiling: 20000 feet AGL
Clouds: broken clouds at 20000 feet AGL
broken clouds at 25000 feet AGL
Weather: no significant weather observed at this time

Forecast for: KFAT (FRESNO , CA, US)
Text: KFAT 252320Z 2600/2624 VRB05KT P6SM SKC
Forecast period: 0000 UTC 26 May 2022 to 0000 UTC 27 May 2022
Forecast type: FROM: standard forecast or significant change
Winds: variable direction winds at 6 MPH (5 knots; 2.6 m/s)
Visibility: 6 or more miles (10+ km)
Clouds: clear skies
Weather: no significant weather forecast for this period